createdAt,value
2022-11-24T00:00:13.751Z,1.92
2022-11-24T00:01:13.766Z,1.92
2022-11-24T00:02:13.904Z,1.93
2022-11-24T00:03:13.951Z,1.92
2022-11-24T00:04:13.851Z,1.93
2022-11-24T00:05:13.882Z,1.93
2022-11-24T00:06:13.907Z,1.93
2022-11-24T00:07:14.021Z,1.93
2022-11-24T00:08:14.001Z,1.92
2022-11-24T00:09:14.010Z,1.93
2022-11-24T00:10:14.041Z,1.93
2022-11-24T00:11:14.062Z,1.92
2022-11-24T00:12:14.100Z,1.92
2022-11-24T00:13:14.152Z,1.92
2022-11-24T00:14:14.159Z,1.92
2022-11-24T00:15:14.198Z,1.92
2022-11-24T00:16:14.339Z,1.92
2022-11-24T00:17:14.282Z,1.92
2022-11-24T00:18:14.312Z,1.92
2022-11-24T00:19:19.411Z,1.92
2022-11-24T00:20:14.348Z,1.92
2022-11-24T00:21:14.383Z,1.92
2022-11-24T00:22:14.407Z,1.92
2022-11-24T00:23:14.461Z,1.92
2022-11-24T00:24:14.472Z,1.92
2022-11-24T00:25:14.509Z,1.92
2022-11-24T00:26:14.534Z,1.93
2022-11-24T00:27:14.579Z,1.92
2022-11-24T00:28:14.585Z,1.92
2022-11-24T00:29:14.637Z,1.92
2022-11-24T00:30:14.656Z,1.91
2022-11-24T00:31:17.159Z,1.91
2022-11-24T00:32:14.715Z,1.91
2022-11-24T00:33:14.749Z,1.91
2022-11-24T00:34:14.822Z,1.91
2022-11-24T00:35:14.837Z,1.91
2022-11-24T00:36:14.849Z,1.93
2022-11-24T00:37:14.886Z,1.93
2022-11-24T00:38:14.917Z,1.92
2022-11-24T00:39:14.953Z,1.9
2022-11-24T00:40:14.972Z,1.9
2022-11-24T00:41:15.031Z,1.9
2022-11-24T00:42:15.037Z,1.92
2022-11-24T00:43:15.072Z,1.92
2022-11-24T00:44:15.102Z,1.92
2022-11-24T00:45:15.145Z,1.91
2022-11-24T00:46:15.248Z,1.91
2022-11-24T00:47:15.279Z,1.91
2022-11-24T00:48:15.237Z,1.91
2022-11-24T00:49:15.270Z,1.91
2022-11-24T00:50:15.308Z,1.91
2022-11-24T00:51:15.353Z,1.9
2022-11-24T00:52:15.363Z,1.91
2022-11-24T00:53:15.399Z,1.9
2022-11-24T00:54:15.422Z,1.92
2022-11-24T00:55:15.461Z,1.92
2022-11-24T00:56:15.517Z,1.92
2022-11-24T00:57:15.528Z,1.91
2022-11-24T00:58:15.565Z,1.91
2022-11-24T00:59:15.595Z,1.92
2022-11-24T01:00:15.628Z,1.93
2022-11-24T01:01:15.690Z,1.93
2022-11-24T01:02:15.717Z,1.92
2022-11-24T01:03:15.722Z,1.87
2022-11-24T01:04:15.756Z,1.85
2022-11-24T01:05:15.785Z,1.9
2022-11-24T01:06:15.826Z,1.91
2022-11-24T01:07:15.872Z,1.88
2022-11-24T01:08:15.887Z,1.89
2022-11-24T01:09:15.929Z,1.87
2022-11-24T01:10:15.968Z,1.87
2022-11-24T01:11:15.993Z,1.88
2022-11-24T01:12:16.018Z,1.86
2022-11-24T01:13:16.069Z,1.87
2022-11-24T01:14:16.084Z,1.87
2022-11-24T01:15:16.108Z,1.87
2022-11-24T01:16:16.200Z,1.89
2022-11-24T01:17:16.171Z,1.89
2022-11-24T01:18:16.220Z,1.87
2022-11-24T01:19:16.235Z,1.87
2022-11-24T01:20:16.292Z,1.87
2022-11-24T01:21:16.308Z,1.87
2022-11-24T01:22:16.338Z,1.87
2022-11-24T01:23:16.363Z,1.85
2022-11-24T01:24:16.416Z,1.86
2022-11-24T01:25:16.431Z,1.86
2022-11-24T01:26:16.462Z,1.84
2022-11-24T01:27:16.484Z,1.84
2022-11-24T01:28:16.537Z,1.87
2022-11-24T01:29:16.543Z,1.87
2022-11-24T01:30:16.588Z,1.86
2022-11-24T01:31:16.746Z,1.87
2022-11-24T01:32:16.628Z,1.86
2022-11-24T01:33:16.654Z,1.86
2022-11-24T01:34:16.682Z,1.85
2022-11-24T01:35:16.722Z,1.88
2022-11-24T01:36:16.777Z,1.86
2022-11-24T01:37:16.808Z,1.85
2022-11-24T01:38:16.830Z,1.81
2022-11-24T01:39:16.854Z,1.8
2022-11-24T01:40:16.884Z,1.78
2022-11-24T01:41:16.914Z,1.8
2022-11-24T01:42:16.961Z,1.77
2022-11-24T01:43:16.979Z,1.72
2022-11-24T01:44:17.009Z,1.74
2022-11-24T01:45:17.039Z,1.76
2022-11-24T01:46:17.162Z,1.76
2022-11-24T01:47:17.129Z,1.76
2022-11-24T01:48:17.142Z,1.74
2022-11-24T01:49:17.167Z,1.73
2022-11-24T01:50:17.222Z,1.74
2022-11-24T01:51:17.242Z,1.74
2022-11-24T01:52:17.261Z,1.74
2022-11-24T01:53:17.288Z,1.7
2022-11-24T01:54:17.324Z,1.69
2022-11-24T01:55:17.375Z,1.69
2022-11-24T01:56:17.394Z,1.69
2022-11-24T01:57:17.419Z,1.69
2022-11-24T01:58:17.460Z,1.69
2022-11-24T01:59:17.500Z,1.68
2022-11-24T02:00:17.533Z,1.66
2022-11-24T02:01:17.620Z,1.66
2022-11-24T02:02:17.688Z,1.66
2022-11-24T02:03:17.615Z,1.72
2022-11-24T02:04:17.652Z,1.73
2022-11-24T02:05:17.683Z,1.7
2022-11-24T02:06:17.738Z,1.7
2022-11-24T02:07:17.789Z,1.7
2022-11-24T02:08:17.780Z,1.71
2022-11-24T02:09:17.811Z,1.71
2022-11-24T02:10:17.834Z,1.71
2022-11-24T02:11:17.871Z,1.71
2022-11-24T02:12:17.927Z,1.7
2022-11-24T02:13:17.926Z,1.71
2022-11-24T02:14:17.954Z,1.71
2022-11-24T02:15:17.987Z,1.69
2022-11-24T02:16:18.078Z,1.69
2022-11-24T02:17:18.083Z,1.69
2022-11-24T02:18:18.091Z,1.69
2022-11-24T02:19:18.128Z,1.67
2022-11-24T02:20:18.157Z,1.67
2022-11-24T02:21:18.198Z,1.68
2022-11-24T02:22:18.254Z,1.64
2022-11-24T02:23:18.259Z,1.64
2022-11-24T02:24:18.302Z,1.63
2022-11-24T02:25:18.315Z,1.61
2022-11-24T02:26:18.350Z,1.61
2022-11-24T02:27:18.387Z,1.61
2022-11-24T02:28:18.413Z,1.61
2022-11-24T02:29:18.443Z,1.61
2022-11-24T02:30:18.489Z,1.59
2022-11-24T02:31:18.608Z,1.6
2022-11-24T02:32:18.531Z,1.6
2022-11-24T02:33:18.575Z,1.62
2022-11-24T02:34:18.591Z,1.64
2022-11-24T02:35:18.615Z,1.64
2022-11-24T02:36:18.660Z,1.64
2022-11-24T02:37:18.691Z,1.62
2022-11-24T02:38:18.722Z,1.62
2022-11-24T02:39:18.743Z,1.63
2022-11-24T02:40:18.784Z,1.63
2022-11-24T02:41:18.803Z,1.63
2022-11-24T02:42:18.837Z,1.63
2022-11-24T02:43:18.864Z,1.64
2022-11-24T02:44:18.898Z,1.64
2022-11-24T02:45:18.932Z,1.64
2022-11-24T02:46:19.020Z,1.64
2022-11-24T02:47:18.999Z,1.63
2022-11-24T02:48:19.043Z,1.63
2022-11-24T02:49:19.064Z,1.63
2022-11-24T02:50:19.110Z,1.62
2022-11-24T02:51:19.123Z,1.63
2022-11-24T02:52:19.154Z,1.63
2022-11-24T02:53:19.179Z,1.6
2022-11-24T02:54:19.212Z,1.6
2022-11-24T02:55:19.260Z,1.63
2022-11-24T02:56:19.272Z,1.63
2022-11-24T02:57:19.305Z,1.63
2022-11-24T02:58:19.338Z,1.63
2022-11-24T02:59:19.379Z,1.63
2022-11-24T03:00:19.432Z,1.59
2022-11-24T03:01:19.478Z,1.56
2022-11-24T03:02:19.491Z,1.56
2022-11-24T03:03:19.497Z,1.58
2022-11-24T03:04:19.528Z,1.59
2022-11-24T03:05:19.581Z,1.59
2022-11-24T03:06:19.596Z,1.61
2022-11-24T03:07:19.717Z,1.62
2022-11-24T03:08:19.660Z,1.62
2022-11-24T03:09:19.708Z,1.61
2022-11-24T03:10:19.717Z,1.61
2022-11-24T03:11:19.767Z,1.6
2022-11-24T03:12:19.789Z,1.59
2022-11-24T03:13:19.827Z,1.57
2022-11-24T03:14:19.855Z,1.57
2022-11-24T03:15:19.884Z,1.58
2022-11-24T03:16:20.002Z,1.57
2022-11-24T03:17:19.948Z,1.57
2022-11-24T03:18:19.979Z,1.57
2022-11-24T03:19:20.018Z,1.55
2022-11-24T03:20:20.039Z,1.55
2022-11-24T03:21:20.067Z,1.55
2022-11-24T03:22:20.097Z,1.55
2022-11-24T03:23:20.151Z,1.55
2022-11-24T03:24:20.165Z,1.56
2022-11-24T03:25:20.197Z,1.57
2022-11-24T03:26:20.245Z,1.55
2022-11-24T03:27:20.258Z,1.57
2022-11-24T03:28:20.305Z,1.57
2022-11-24T03:29:20.317Z,1.57
2022-11-24T03:30:20.376Z,1.57
2022-11-24T03:31:20.488Z,1.57
2022-11-24T03:32:20.413Z,1.4
2022-11-24T03:33:20.459Z,1.4
2022-11-24T03:34:20.470Z,1.4
2022-11-24T03:35:20.504Z,1.4
2022-11-24T03:36:20.538Z,1.39
2022-11-24T03:37:20.569Z,1.39
2022-11-24T03:38:20.618Z,1.41
2022-11-24T03:39:20.633Z,1.41
2022-11-24T03:40:20.665Z,1.4
2022-11-24T03:41:20.688Z,1.4
2022-11-24T03:42:20.721Z,1.41
2022-11-24T03:43:20.746Z,1.4
2022-11-24T03:44:20.771Z,1.38
2022-11-24T03:45:45.465Z,1.39
2022-11-24T03:46:20.971Z,1.39
2022-11-24T03:47:20.873Z,1.38
2022-11-24T03:48:20.900Z,1.39
2022-11-24T03:49:20.954Z,1.36
2022-11-24T03:50:20.965Z,1.35
2022-11-24T03:51:20.997Z,1.36
2022-11-24T03:52:21.028Z,1.38
2022-11-24T03:53:21.064Z,1.36
2022-11-24T03:54:21.122Z,1.36
2022-11-24T03:55:21.126Z,1.36
2022-11-24T03:56:21.165Z,1.39
2022-11-24T03:57:21.194Z,1.38
2022-11-24T03:58:21.223Z,1.38
2022-11-24T03:59:21.268Z,1.36
2022-11-24T04:00:21.277Z,1.36
2022-11-24T04:01:21.367Z,1.35
2022-11-24T04:02:21.397Z,1.35
2022-11-24T04:03:21.370Z,1.35
2022-11-24T04:04:21.403Z,1.35
2022-11-24T04:05:21.431Z,1.33
2022-11-24T04:06:21.492Z,1.33
2022-11-24T04:07:21.536Z,1.33
2022-11-24T04:08:21.532Z,1.33
2022-11-24T04:09:21.568Z,1.33
2022-11-24T04:10:21.623Z,1.3
2022-11-24T04:11:21.662Z,1.3
2022-11-24T04:12:21.665Z,1.27
2022-11-24T04:13:21.693Z,1.26
2022-11-24T04:14:21.727Z,1.27
2022-11-24T04:15:21.770Z,1.27
2022-11-24T04:16:21.890Z,1.27
2022-11-24T04:17:21.842Z,1.28
2022-11-24T04:18:21.914Z,1.25
2022-11-24T04:19:21.910Z,1.25
2022-11-24T04:20:21.952Z,1.25
2022-11-24T04:21:22.004Z,1.25
2022-11-24T04:22:22.036Z,1.28
2022-11-24T04:23:22.069Z,1.28
2022-11-24T04:24:22.081Z,1.28
2022-11-24T04:25:22.114Z,1.26
2022-11-24T04:26:22.167Z,1.24
2022-11-24T04:27:22.189Z,1.23
2022-11-24T04:28:22.214Z,1.24
2022-11-24T04:29:22.267Z,1.25
2022-11-24T04:30:22.282Z,1.25
2022-11-24T04:31:22.361Z,1.26
2022-11-24T04:32:22.342Z,1.26
2022-11-24T04:33:22.373Z,1.25
2022-11-24T04:34:22.432Z,1.22
2022-11-24T04:35:22.442Z,1.23
2022-11-24T04:36:22.495Z,1.23
2022-11-24T04:37:22.504Z,1.17
2022-11-24T04:39:23.057Z,1.17
2022-11-24T04:39:24.967Z,1.17
2022-11-24T04:40:22.602Z,1.16
2022-11-24T04:41:22.637Z,1.19
2022-11-24T04:42:22.668Z,1.16
2022-11-24T04:43:22.707Z,1.16
2022-11-24T04:44:22.736Z,1.17
2022-11-24T04:45:22.775Z,1.17
2022-11-24T04:46:22.827Z,1.17
2022-11-24T04:47:22.861Z,1.17
2022-11-24T04:48:22.881Z,1.17
2022-11-24T04:49:22.913Z,1.17
2022-11-24T04:50:22.944Z,1.17
2022-11-24T04:51:22.976Z,1.17
2022-11-24T04:52:23.026Z,1.17
2022-11-24T04:53:23.040Z,1.17
2022-11-24T04:54:23.075Z,1.17
2022-11-24T04:55:23.128Z,1.18
2022-11-24T04:56:23.141Z,1.17
2022-11-24T04:57:23.168Z,1.08
2022-11-24T04:58:23.224Z,1.1
2022-11-24T04:59:23.236Z,1.1
2022-11-24T05:00:23.268Z,1.1
2022-11-24T05:01:23.346Z,1.1
2022-11-24T05:02:23.358Z,1.1
2022-11-24T05:03:23.375Z,1.09
2022-11-24T05:04:23.444Z,1.09
2022-11-24T05:05:23.436Z,1.09
2022-11-24T05:06:23.478Z,1.09
2022-11-24T05:07:23.538Z,1.08
2022-11-24T05:08:23.522Z,1.08
2022-11-24T05:09:36.726Z,1.08
2022-11-24T05:10:23.579Z,1.06
2022-11-24T05:11:23.630Z,1.08
2022-11-24T05:12:23.643Z,1.08
2022-11-24T05:13:23.677Z,1.08
2022-11-24T05:14:23.705Z,1.08
2022-11-24T05:15:23.751Z,1.09
2022-11-24T05:16:23.872Z,1.09
2022-11-24T05:17:23.813Z,1.09
2022-11-24T05:18:23.846Z,1.09
2022-11-24T05:19:25.359Z,1.09
2022-11-24T05:20:23.904Z,1.09
2022-11-24T05:21:23.936Z,1.09
2022-11-24T05:22:23.975Z,1.11
2022-11-24T05:23:24.005Z,1.12
2022-11-24T05:24:24.084Z,1.11
2022-11-24T05:25:24.081Z,1.11
2022-11-24T05:26:24.117Z,1.11
2022-11-24T05:27:24.169Z,1.08
2022-11-24T05:28:24.176Z,1.09
2022-11-24T05:29:24.204Z,1.09
2022-11-24T05:30:24.240Z,1.09
2022-11-24T05:31:24.316Z,1.08
2022-11-24T05:32:24.336Z,1.09
2022-11-24T05:33:24.346Z,1.09
2022-11-24T05:34:24.368Z,1.09
2022-11-24T05:35:24.402Z,1.09
2022-11-24T05:36:24.443Z,1.06
2022-11-24T05:37:24.493Z,1.05
2022-11-24T05:38:24.519Z,1.05
2022-11-24T05:39:24.545Z,1.08
2022-11-24T05:40:24.567Z,1.04
2022-11-24T05:41:24.605Z,1.04
2022-11-24T05:42:24.639Z,1.04
2022-11-24T05:43:24.692Z,1.04
2022-11-24T05:44:24.686Z,1.07
2022-11-24T05:45:24.729Z,1.04
2022-11-24T05:46:24.831Z,1.06
2022-11-24T05:47:24.804Z,1.06
2022-11-24T05:48:24.855Z,1.03
2022-11-24T05:49:24.870Z,1.03
2022-11-24T05:50:24.898Z,1.03
2022-11-24T05:51:24.932Z,1.03
2022-11-24T05:52:24.975Z,1.03
2022-11-24T05:53:25.019Z,1.03
2022-11-24T05:54:25.060Z,1.05
2022-11-24T05:55:25.061Z,1.03
2022-11-24T05:56:25.104Z,1.03
2022-11-24T05:57:25.147Z,1.03
2022-11-24T05:58:25.175Z,1.03
2022-11-24T05:59:25.219Z,1.07
2022-11-24T06:00:25.226Z,1.06
2022-11-24T06:01:25.264Z,1.04
2022-11-24T06:02:25.396Z,1.06
2022-11-24T06:03:25.329Z,1.03
2022-11-24T06:04:25.365Z,1.05
2022-11-24T06:05:25.398Z,1.03
2022-11-24T06:06:25.435Z,1.03
2022-11-24T06:07:25.493Z,1.06
2022-11-24T06:08:29.699Z,1.07
2022-11-24T06:09:25.528Z,1.08
2022-11-24T06:10:25.591Z,1.08
2022-11-24T06:11:25.596Z,1.06
2022-11-24T06:12:25.636Z,1.07
2022-11-24T06:13:25.711Z,1.09
2022-11-24T06:14:25.698Z,1.06
2022-11-24T06:15:25.748Z,1.09
2022-11-24T06:16:25.819Z,1.09
2022-11-24T06:17:25.802Z,1.09
2022-11-24T06:18:25.830Z,1.06
2022-11-24T06:19:25.856Z,1.02
2022-11-24T06:20:31.208Z,1.07
2022-11-24T06:21:25.909Z,1.03
2022-11-24T06:22:25.943Z,1.03
2022-11-24T06:23:25.976Z,1.04
2022-11-24T06:24:26.001Z,1.02
2022-11-24T06:25:26.034Z,1.02
2022-11-24T06:26:26.072Z,1.05
2022-11-24T06:27:26.105Z,1.04
2022-11-24T06:28:26.137Z,1.04
2022-11-24T06:29:26.163Z,1.05
2022-11-24T06:30:26.198Z,1.02
2022-11-24T06:31:26.298Z,1.03
2022-11-24T06:32:26.272Z,1.03
2022-11-24T06:33:26.305Z,1.03
2022-11-24T06:34:26.339Z,1.04
2022-11-24T06:35:26.369Z,1.04
2022-11-24T06:36:26.400Z,1.03
2022-11-24T06:37:26.440Z,1.03
2022-11-24T06:38:26.478Z,1.03
2022-11-24T06:39:26.497Z,1.03
2022-11-24T06:40:26.530Z,1.03
2022-11-24T06:41:26.564Z,1.03
2022-11-24T06:42:26.600Z,1.04
2022-11-24T06:43:26.633Z,1.02
2022-11-24T06:44:26.668Z,1.03
2022-11-24T06:45:26.755Z,1.06
2022-11-24T06:46:26.737Z,1.06
2022-11-24T06:47:26.781Z,1.03
2022-11-24T06:48:26.816Z,1.04
2022-11-24T06:49:26.858Z,1.07
2022-11-24T06:50:32.130Z,1.06
2022-11-24T06:51:26.910Z,1.03
2022-11-24T06:52:26.949Z,1.04
2022-11-24T06:53:26.977Z,1.03
2022-11-24T06:54:27.013Z,1.03
2022-11-24T06:55:27.049Z,1.03
2022-11-24T06:56:27.083Z,1.05
2022-11-24T06:57:27.112Z,1.05
2022-11-24T06:58:27.146Z,1.05
2022-11-24T06:59:27.185Z,1.04
2022-11-24T07:00:27.202Z,1.09
2022-11-24T07:01:27.329Z,1.12
2022-11-24T07:02:27.266Z,1.11
2022-11-24T07:03:27.335Z,1.11
2022-11-24T07:04:27.326Z,1.13
2022-11-24T07:05:27.360Z,1.12
2022-11-24T07:06:27.392Z,1.11
2022-11-24T07:07:27.453Z,1.14
2022-11-24T07:08:27.441Z,1.15
2022-11-24T07:09:27.464Z,1.15
2022-11-24T07:10:27.512Z,1.17
2022-11-24T07:11:27.528Z,1.22
2022-11-24T07:12:27.567Z,1.2
2022-11-24T07:13:27.589Z,1.2
2022-11-24T07:14:27.628Z,1.2
2022-11-24T07:15:27.655Z,1.2
2022-11-24T07:16:27.765Z,1.2
2022-11-24T07:17:27.709Z,1.2
2022-11-24T07:18:27.740Z,1.2
2022-11-24T07:19:27.778Z,1.2
2022-11-24T07:20:27.811Z,1.17
2022-11-24T07:21:27.850Z,1.15
2022-11-24T07:22:27.880Z,1.16
2022-11-24T07:23:27.909Z,1.16
2022-11-24T07:24:27.936Z,1.17
2022-11-24T07:25:27.962Z,1.15
2022-11-24T07:26:28.001Z,1.15
2022-11-24T07:27:28.034Z,1.15
2022-11-24T07:28:28.057Z,1.16
2022-11-24T07:29:28.089Z,1.16
2022-11-24T07:30:28.182Z,1.16
2022-11-24T07:31:28.274Z,1.16
2022-11-24T07:32:28.191Z,1.2
2022-11-24T07:33:28.227Z,1.21
2022-11-24T07:34:28.251Z,1.21
2022-11-24T07:35:28.320Z,1.21
2022-11-24T07:36:28.320Z,1.21
2022-11-24T07:37:31.564Z,1.23
2022-11-24T07:38:28.408Z,1.23
2022-11-24T07:39:28.417Z,1.23
2022-11-24T07:40:28.461Z,1.23
2022-11-24T07:41:28.492Z,1.24
2022-11-24T07:42:28.524Z,1.24
2022-11-24T07:43:28.558Z,1.31
2022-11-24T07:44:28.599Z,1.3
2022-11-24T07:45:28.696Z,1.29
2022-11-24T07:46:28.715Z,1.3
2022-11-24T07:47:28.685Z,1.3
2022-11-24T07:48:28.716Z,1.29
2022-11-24T07:49:28.747Z,1.28
2022-11-24T07:50:28.773Z,1.29
2022-11-24T07:51:28.810Z,1.29
2022-11-24T07:52:28.840Z,1.27
2022-11-24T07:53:28.864Z,1.28
2022-11-24T07:54:28.891Z,1.28
2022-11-24T07:55:28.937Z,1.29
2022-11-24T07:56:28.963Z,1.29
2022-11-24T07:57:28.989Z,1.29
2022-11-24T07:58:32.681Z,1.28
2022-11-24T07:59:29.038Z,1.26
2022-11-24T08:00:29.075Z,1.27
2022-11-24T08:01:29.190Z,1.3
2022-11-24T08:02:29.121Z,1.35
2022-11-24T08:03:29.249Z,1.35
2022-11-24T08:04:29.190Z,1.35
2022-11-24T08:05:29.219Z,1.38
2022-11-24T08:06:37.443Z,1.39
2022-11-24T08:07:29.389Z,1.4
2022-11-24T08:08:29.311Z,1.42
2022-11-24T08:09:29.358Z,1.41
2022-11-24T08:10:29.383Z,1.43
2022-11-24T08:11:29.418Z,1.42
2022-11-24T08:12:29.466Z,1.42
2022-11-24T08:13:29.488Z,1.49
2022-11-24T08:14:29.523Z,1.5
2022-11-24T08:15:29.554Z,1.5
2022-11-24T08:16:29.629Z,1.52
2022-11-24T08:17:29.615Z,1.53
2022-11-24T08:18:29.641Z,1.52
2022-11-24T08:19:29.677Z,1.48
2022-11-24T08:20:29.700Z,1.49
2022-11-24T08:21:29.729Z,1.49
2022-11-24T08:22:29.760Z,1.49
2022-11-24T08:23:29.788Z,1.5
2022-11-24T08:24:29.813Z,1.53
2022-11-24T08:25:29.831Z,1.55
2022-11-24T08:26:29.863Z,1.55
2022-11-24T08:27:29.898Z,1.54
2022-11-24T08:28:29.931Z,1.54
2022-11-24T08:29:29.964Z,1.52
2022-11-24T08:30:29.995Z,1.54
2022-11-24T08:31:30.090Z,1.58
2022-11-24T08:32:30.056Z,1.59
2022-11-24T08:33:30.106Z,1.59
2022-11-24T08:34:30.110Z,1.61
2022-11-24T08:35:30.147Z,1.63
2022-11-24T08:36:30.187Z,1.63
2022-11-24T08:37:30.215Z,1.65
2022-11-24T08:38:30.275Z,1.59
2022-11-24T08:39:30.277Z,1.59
2022-11-24T08:40:30.321Z,1.63
2022-11-24T08:41:30.354Z,1.63
2022-11-24T08:42:30.389Z,1.65
2022-11-24T08:43:30.408Z,1.67
2022-11-24T08:44:30.444Z,1.68
2022-11-24T08:45:30.860Z,1.7
2022-11-24T08:46:30.650Z,1.71
2022-11-24T08:47:30.550Z,1.76
2022-11-24T08:48:30.576Z,1.8
2022-11-24T08:49:30.613Z,1.79
2022-11-24T08:50:30.649Z,1.81
2022-11-24T08:51:30.680Z,1.8
2022-11-24T08:52:30.709Z,1.82
2022-11-24T08:53:30.741Z,1.83
2022-11-24T08:54:30.773Z,1.83
2022-11-24T08:55:30.812Z,1.81
2022-11-24T08:56:30.846Z,1.8
2022-11-24T08:57:30.867Z,1.79
2022-11-24T08:58:30.899Z,1.84
2022-11-24T08:59:30.992Z,1.82
2022-11-24T09:00:30.985Z,1.82
2022-11-24T09:01:31.056Z,1.79
2022-11-24T09:02:31.026Z,1.83
2022-11-24T09:03:31.057Z,1.85
2022-11-24T09:04:31.216Z,1.86
2022-11-24T09:06:31.203Z,1.84
2022-11-24T09:07:31.238Z,1.85
2022-11-24T09:08:31.219Z,1.85
2022-11-24T09:09:31.258Z,1.89
2022-11-24T09:10:31.289Z,1.9
2022-11-24T09:11:31.307Z,1.9
2022-11-24T09:12:31.344Z,1.9
2022-11-24T09:13:31.380Z,1.93
2022-11-24T09:14:31.694Z,1.92
2022-11-24T09:15:31.431Z,1.93
2022-11-24T09:16:31.497Z,2
2022-11-24T09:17:31.489Z,2
2022-11-24T09:18:31.521Z,1.99
2022-11-24T09:19:31.802Z,2.03
2022-11-24T09:20:31.589Z,2.06
2022-11-24T09:21:31.607Z,2.05
2022-11-24T09:22:31.640Z,2.06
2022-11-24T09:23:31.659Z,2.1
2022-11-24T09:24:31.691Z,2.16
2022-11-24T09:25:31.739Z,2.15
2022-11-24T09:26:31.750Z,2.17
2022-11-24T09:27:31.782Z,2.16
2022-11-24T09:28:31.819Z,2.14
2022-11-24T09:29:32.260Z,2.14
2022-11-24T09:30:31.932Z,2.14
2022-11-24T09:31:31.943Z,2.12
2022-11-24T09:32:31.929Z,2.13
2022-11-24T09:33:31.972Z,2.18
2022-11-24T09:34:32.000Z,2.15
2022-11-24T09:35:32.026Z,2.15
2022-11-24T09:36:32.051Z,2.22
2022-11-24T09:37:32.935Z,2.22
2022-11-24T09:38:32.110Z,2.22
2022-11-24T09:39:32.446Z,2.23
2022-11-24T09:40:32.184Z,2.28
2022-11-24T09:41:32.204Z,2.3
2022-11-24T09:42:32.245Z,2.29
2022-11-24T09:43:32.286Z,2.29
2022-11-24T09:44:32.302Z,2.34
2022-11-24T09:46:03.400Z,2.4
2022-11-24T09:46:32.461Z,2.39
2022-11-24T09:47:32.405Z,2.39
2022-11-24T09:48:32.443Z,2.43
2022-11-24T09:49:32.663Z,2.48
2022-11-24T09:50:32.513Z,2.48
2022-11-24T09:51:32.548Z,2.47
2022-11-24T09:52:32.594Z,2.46
2022-11-24T09:53:32.602Z,2.48
2022-11-24T09:54:32.643Z,2.59
2022-11-24T09:55:32.676Z,2.62
2022-11-24T09:56:32.707Z,2.6
2022-11-24T09:57:37.244Z,2.59
2022-11-24T09:58:32.776Z,2.61
2022-11-24T09:59:33.072Z,2.6
2022-11-24T10:00:32.840Z,2.65
2022-11-24T10:01:32.937Z,2.64
2022-11-24T10:02:32.890Z,2.65
2022-11-24T10:03:32.918Z,2.65
2022-11-24T10:04:32.973Z,2.66
2022-11-24T10:05:32.976Z,2.7
2022-11-24T10:06:33.009Z,2.73
2022-11-24T10:07:33.127Z,2.69
2022-11-24T10:08:33.062Z,2.7
2022-11-24T10:09:33.432Z,2.69
2022-11-24T10:10:33.126Z,2.68
2022-11-24T10:11:33.325Z,2.68
2022-11-24T10:12:33.188Z,2.72
2022-11-24T10:13:33.214Z,2.71
2022-11-24T10:14:33.241Z,2.71
2022-11-24T10:15:33.330Z,2.74
2022-11-24T10:16:33.470Z,2.74
2022-11-24T10:17:33.348Z,2.72
2022-11-24T10:18:33.377Z,2.77
2022-11-24T10:19:36.901Z,2.77
2022-11-24T10:20:33.452Z,2.79
2022-11-24T10:21:33.478Z,2.79
2022-11-24T10:22:33.512Z,2.84
2022-11-24T10:23:38.403Z,2.86
2022-11-24T10:24:33.579Z,2.87
2022-11-24T10:25:33.610Z,2.89
2022-11-24T10:26:33.645Z,2.88
2022-11-24T10:27:33.678Z,2.89
2022-11-24T10:28:33.723Z,2.9
2022-11-24T10:29:33.941Z,2.9
2022-11-24T10:30:33.782Z,2.88
2022-11-24T10:31:33.860Z,2.91
2022-11-24T10:32:33.836Z,2.92
2022-11-24T10:33:33.861Z,2.94
2022-11-24T10:34:33.897Z,2.96
2022-11-24T10:35:33.926Z,2.93
2022-11-24T10:36:33.947Z,2.96
2022-11-24T10:37:33.976Z,2.98
2022-11-24T10:38:34.012Z,2.95
2022-11-24T10:39:34.460Z,2.99
2022-11-24T10:40:55.847Z,2.98
2022-11-24T10:41:34.104Z,2.99
2022-11-24T10:42:34.129Z,3.04
2022-11-24T10:43:34.164Z,3.04
2022-11-24T10:44:34.186Z,3.1
2022-11-24T10:45:34.226Z,3.14
2022-11-24T10:46:39.175Z,3.12
2022-11-24T10:47:34.294Z,3.12
2022-11-24T10:48:34.326Z,3.17
2022-11-24T10:49:34.704Z,3.2
2022-11-24T10:50:34.415Z,3.2
2022-11-24T10:51:34.436Z,3.21
2022-11-24T10:52:34.460Z,3.2
2022-11-24T10:53:34.487Z,3.22
2022-11-24T10:54:34.521Z,3.25
2022-11-24T10:55:34.550Z,3.25
2022-11-24T10:56:34.575Z,3.25
2022-11-24T10:57:34.612Z,3.29
2022-11-24T10:58:38.060Z,3.33
2022-11-24T10:59:34.999Z,3.3
2022-11-24T11:00:34.721Z,3.29
2022-11-24T11:01:34.791Z,3.3
2022-11-24T11:02:34.924Z,3.3
2022-11-24T11:03:34.815Z,3.31
2022-11-24T11:04:34.842Z,3.31
2022-11-24T11:05:34.893Z,3.38
2022-11-24T11:06:34.920Z,3.41
2022-11-24T11:07:35.063Z,3.44
2022-11-24T11:08:34.980Z,3.41
2022-11-24T11:09:35.174Z,3.41
2022-11-24T11:10:35.039Z,3.46
2022-11-24T11:11:35.075Z,3.46
2022-11-24T11:12:43.909Z,3.44
2022-11-24T11:13:35.131Z,3.44
2022-11-24T11:14:35.171Z,3.44
2022-11-24T11:15:35.237Z,3.44
2022-11-24T11:16:35.233Z,3.46
2022-11-24T11:17:35.282Z,3.45
2022-11-24T11:18:35.292Z,3.46
2022-11-24T11:19:48.981Z,3.5
2022-11-24T11:20:35.345Z,3.5
2022-11-24T11:21:35.385Z,3.53
2022-11-24T11:22:35.412Z,3.54
2022-11-24T11:23:35.434Z,3.56
2022-11-24T11:24:35.472Z,3.56
2022-11-24T11:25:35.520Z,3.56
2022-11-24T11:26:35.549Z,3.57
2022-11-24T11:27:35.581Z,3.56
2022-11-24T11:28:35.604Z,3.56
2022-11-24T11:31:35.793Z,3.54
2022-11-24T11:34:04.573Z,3.55
2022-11-24T11:34:36.057Z,3.56
2022-11-24T11:35:35.837Z,3.56
2022-11-24T11:36:35.858Z,3.55
2022-11-24T11:37:35.892Z,3.55
2022-11-24T11:38:35.924Z,3.56
2022-11-24T11:39:35.956Z,3.56
2022-11-24T11:40:35.979Z,3.57
2022-11-24T11:41:36.012Z,3.57
2022-11-24T11:43:01.447Z,3.57
2022-11-24T11:43:36.063Z,3.57
2022-11-24T11:44:36.623Z,3.58
2022-11-24T11:45:36.227Z,3.53
2022-11-24T11:46:36.241Z,3.52
2022-11-24T11:47:36.202Z,3.52
2022-11-24T11:48:43.189Z,3.53
2022-11-24T11:49:36.257Z,3.53
2022-11-24T11:50:42.906Z,3.57
2022-11-24T11:51:36.373Z,3.57
2022-11-24T11:52:36.352Z,3.6
2022-11-24T11:53:36.385Z,3.62
2022-11-24T11:54:36.620Z,3.62
2022-11-24T11:55:36.430Z,3.61
2022-11-24T11:56:36.458Z,3.61
2022-11-24T11:57:36.491Z,3.6
2022-11-24T11:58:36.537Z,3.63
2022-11-24T11:59:36.550Z,3.64
2022-11-24T12:00:36.583Z,3.65
2022-11-24T12:01:36.619Z,3.63
2022-11-24T12:02:36.792Z,3.63
2022-11-24T12:03:36.835Z,3.63
2022-11-24T12:04:37.039Z,3.66
2022-11-24T12:05:36.748Z,3.65
2022-11-24T12:06:36.790Z,3.66
2022-11-24T12:07:36.889Z,3.66
2022-11-24T12:09:03.354Z,3.68
2022-11-24T12:09:37.209Z,3.65
2022-11-24T12:10:36.921Z,3.72
2022-11-24T12:11:36.948Z,3.73
2022-11-24T12:12:36.985Z,3.75
2022-11-24T12:13:37.013Z,3.74
2022-11-24T12:14:39.274Z,3.75
2022-11-24T12:15:37.162Z,3.77
2022-11-24T12:16:37.201Z,3.77
2022-11-24T12:17:37.137Z,3.77
2022-11-24T12:18:56.393Z,3.76
2022-11-24T12:19:37.378Z,3.77
2022-11-24T12:20:37.217Z,3.77
2022-11-24T12:21:37.276Z,3.78
2022-11-24T12:22:37.282Z,3.76
2022-11-24T12:23:37.308Z,3.8
2022-11-24T12:24:37.426Z,3.8
2022-11-24T12:25:37.381Z,3.84
2022-11-24T12:26:37.426Z,3.84
2022-11-24T12:27:37.440Z,3.84
2022-11-24T12:28:37.472Z,3.86
2022-11-24T12:29:37.753Z,3.87
2022-11-24T12:30:37.525Z,3.88
2022-11-24T12:31:37.647Z,3.89
2022-11-24T12:32:37.587Z,3.89
2022-11-24T12:33:37.634Z,3.89
2022-11-24T12:34:37.656Z,3.92
2022-11-24T12:35:37.689Z,3.91
2022-11-24T12:36:37.720Z,3.92
2022-11-24T12:37:37.741Z,3.9
2022-11-24T12:38:37.780Z,3.88
2022-11-24T12:39:37.808Z,3.89
2022-11-24T12:40:40.907Z,3.89
2022-11-24T12:41:42.517Z,3.9
2022-11-24T12:42:37.888Z,3.9
2022-11-24T12:43:37.925Z,3.92
2022-11-24T12:44:37.953Z,3.92
2022-11-24T12:45:38.008Z,3.93
2022-11-24T12:46:38.058Z,3.92
2022-11-24T12:47:38.054Z,3.92
2022-11-24T12:48:38.088Z,3.91
2022-11-24T12:49:38.393Z,3.91
2022-11-24T12:50:38.178Z,3.93
2022-11-24T12:51:38.190Z,3.91
2022-11-24T12:52:38.216Z,3.9
2022-11-24T12:53:38.247Z,3.9
2022-11-24T12:54:38.277Z,3.9
2022-11-24T12:55:38.321Z,3.89
2022-11-24T12:56:38.342Z,3.87
2022-11-24T12:57:38.379Z,3.89
2022-11-24T12:58:38.411Z,3.89
2022-11-24T12:59:38.442Z,3.91
2022-11-24T13:00:38.463Z,3.9
2022-11-24T13:01:38.629Z,3.9
2022-11-24T13:02:38.629Z,3.9
2022-11-24T13:03:38.554Z,3.92
2022-11-24T13:04:38.601Z,3.94
2022-11-24T13:05:38.624Z,3.92
2022-11-24T13:06:38.651Z,3.94
2022-11-24T13:07:38.735Z,3.95
2022-11-24T13:08:38.715Z,3.97
2022-11-24T13:09:38.742Z,3.95
2022-11-24T13:10:56.254Z,3.96
2022-11-24T13:11:38.810Z,3.96
2022-11-24T13:12:38.843Z,3.97
2022-11-24T13:13:38.870Z,3.98
2022-11-24T13:14:38.904Z,4
2022-11-24T13:15:46.085Z,3.96
2022-11-24T13:16:53.618Z,3.98
2022-11-24T13:17:59.439Z,3.98
2022-11-24T13:18:39.093Z,3.98
2022-11-24T13:19:39.081Z,3.97
2022-11-24T13:20:39.093Z,3.99
2022-11-24T13:21:39.131Z,3.98
2022-11-24T13:22:39.152Z,3.99
2022-11-24T13:23:39.202Z,4.01
2022-11-24T13:24:39.601Z,4.01
2022-11-24T13:25:39.731Z,4.03